createdAt,value
2023-03-05T00:02:13.591Z,57.81
2023-03-05T00:04:40.171Z,57.77
2023-03-05T00:07:09.044Z,57.59
2023-03-05T00:09:36.113Z,57.54
2023-03-05T00:12:02.677Z,57.75
2023-03-05T00:14:29.239Z,57.61
2023-03-05T00:16:55.768Z,57.16
2023-03-05T00:19:22.399Z,57.50
2023-03-05T00:21:49.085Z,57.32
2023-03-05T00:24:18.275Z,57.33
2023-03-05T00:26:45.909Z,57.25
2023-03-05T00:29:16.484Z,57.44
2023-03-05T00:31:44.379Z,57.21
2023-03-05T00:34:16.795Z,57.01
2023-03-05T00:36:46.060Z,57.34
2023-03-05T00:39:13.609Z,57.12
2023-03-05T00:41:40.567Z,57.52
2023-03-05T00:44:07.219Z,57.19
2023-03-05T00:46:34.165Z,56.59
2023-03-05T00:49:01.002Z,56.87
2023-03-05T00:51:28.002Z,56.84
2023-03-05T00:53:54.956Z,56.79
2023-03-05T00:56:22.240Z,56.73
2023-03-05T00:58:48.844Z,57.04
2023-03-05T01:01:16.389Z,57.50
2023-03-05T01:03:43.087Z,56.84
2023-03-05T01:06:13.065Z,56.97
2023-03-05T01:08:40.112Z,57.37
2023-03-05T01:11:07.389Z,57.08
2023-03-05T01:13:34.404Z,57.22
2023-03-05T01:16:01.534Z,57.22
2023-03-05T01:18:28.126Z,57.01
2023-03-05T01:20:54.810Z,56.37
2023-03-05T01:23:21.370Z,56.70
2023-03-05T01:25:54.484Z,56.62
2023-03-05T01:28:21.029Z,56.36
2023-03-05T01:30:47.703Z,56.60
2023-03-05T01:33:14.540Z,56.51
2023-03-05T01:35:41.733Z,57.26
2023-03-05T01:38:08.383Z,56.09
2023-03-05T01:40:34.928Z,56.77
2023-03-05T01:43:08.798Z,56.29
2023-03-05T01:45:35.589Z,55.80
2023-03-05T01:48:02.240Z,56.10
2023-03-05T01:50:29.150Z,56.05
2023-03-05T01:53:02.566Z,56.15
2023-03-05T01:55:32.931Z,56.06
2023-03-05T01:58:06.950Z,55.42
2023-03-05T02:00:48.454Z,55.78
2023-03-05T02:03:15.303Z,55.62
2023-03-05T02:05:44.442Z,55.75
2023-03-05T02:08:17.367Z,55.21
2023-03-05T02:10:50.111Z,55.58
2023-03-05T02:13:38.669Z,55.38
2023-03-05T02:16:05.768Z,55.71
2023-03-05T02:18:32.587Z,55.81
2023-03-05T02:21:07.087Z,56.01
2023-03-05T02:23:36.531Z,55.55
2023-03-05T02:26:04.998Z,55.75
2023-03-05T02:28:34.678Z,56.08
2023-03-05T02:31:01.416Z,55.69
2023-03-05T02:33:28.011Z,55.80
2023-03-05T02:35:54.590Z,55.76
2023-03-05T02:38:22.709Z,55.87
2023-03-05T02:40:49.221Z,55.71
2023-03-05T02:43:15.817Z,56.16
2023-03-05T02:45:42.464Z,56.11
2023-03-05T02:48:09.206Z,56.23
2023-03-05T02:50:36.766Z,55.79
2023-03-05T02:53:03.466Z,55.97
2023-03-05T02:55:30.029Z,56.15
2023-03-05T02:57:56.576Z,56.27
2023-03-05T03:00:23.148Z,56.08
2023-03-05T03:02:49.980Z,56.40
2023-03-05T03:05:16.632Z,56.30
2023-03-05T03:07:43.208Z,56.63
2023-03-05T03:10:10.653Z,56.42
2023-03-05T03:12:42.450Z,56.11
2023-03-05T03:15:11.240Z,56.65
2023-03-05T03:17:38.732Z,57.31
2023-03-05T03:20:08.625Z,56.89
2023-03-05T03:22:35.181Z,56.83
2023-03-05T03:25:02.331Z,56.74
2023-03-05T03:27:28.871Z,56.87
2023-03-05T03:29:55.445Z,57.13
2023-03-05T03:32:22.068Z,57.13
2023-03-05T03:34:48.646Z,56.83
2023-03-05T03:37:15.338Z,57.17
2023-03-05T03:39:41.881Z,57.81
2023-03-05T03:42:08.390Z,57.38
2023-03-05T03:44:34.922Z,57.36
2023-03-05T03:47:01.483Z,57.65
2023-03-05T03:49:28.689Z,57.75
2023-03-05T03:51:55.591Z,57.68
2023-03-05T03:54:22.698Z,57.68
2023-03-05T03:56:49.298Z,57.82
2023-03-05T03:59:16.119Z,57.90
2023-03-05T04:01:43.214Z,58.50
2023-03-05T04:04:12.425Z,58.26
2023-03-05T04:06:39.090Z,58.21
2023-03-05T04:09:08.125Z,58.05
2023-03-05T04:11:36.251Z,58.54
2023-03-05T04:14:03.740Z,58.13
2023-03-05T04:16:30.531Z,58.09
2023-03-05T04:18:57.119Z,57.92
2023-03-05T04:21:23.988Z,57.99
2023-03-05T04:23:50.574Z,57.91
2023-03-05T04:26:17.099Z,57.71
2023-03-05T04:28:43.627Z,57.78
2023-03-05T04:31:10.246Z,57.72
2023-03-05T04:33:36.878Z,57.84
2023-03-05T04:36:03.536Z,58.07
2023-03-05T04:38:30.100Z,57.83
2023-03-05T04:40:56.652Z,57.96
2023-03-05T04:43:23.167Z,57.99
2023-03-05T04:45:49.688Z,58.61
2023-03-05T04:48:17.037Z,58.42
2023-03-05T04:50:44.100Z,58.18
2023-03-05T04:53:10.676Z,58.49
2023-03-05T04:55:37.217Z,58.68
2023-03-05T04:58:03.743Z,59.01
2023-03-05T05:00:30.334Z,58.77
2023-03-05T05:02:57.034Z,58.86
2023-03-05T05:05:27.142Z,58.74
2023-03-05T05:07:56.264Z,59.18
2023-03-05T05:10:24.255Z,59.23
2023-03-05T05:12:50.961Z,58.94
2023-03-05T05:15:17.730Z,59.10
2023-03-05T05:17:44.590Z,58.86
2023-03-05T05:20:12.817Z,59.18
2023-03-05T05:22:39.568Z,58.63
2023-03-05T05:25:06.453Z,58.91
2023-03-05T05:27:33.014Z,58.89
2023-03-05T05:29:59.572Z,58.82
2023-03-05T05:32:26.419Z,59.08
2023-03-05T05:34:57.914Z,58.62
2023-03-05T05:37:26.192Z,59.08
2023-03-05T05:39:53.211Z,58.65
2023-03-05T05:42:21.715Z,59.02
2023-03-05T05:44:48.323Z,59.18
2023-03-05T05:47:15.733Z,58.94
2023-03-05T05:49:42.307Z,59.14
2023-03-05T05:52:08.928Z,59.60
2023-03-05T05:54:35.573Z,60.06
2023-03-05T05:57:02.172Z,59.34
2023-03-05T05:59:28.793Z,59.65
2023-03-05T06:01:55.607Z,59.70
2023-03-05T06:04:22.907Z,59.82
2023-03-05T06:06:49.524Z,59.69
2023-03-05T06:09:16.467Z,60.34
2023-03-05T06:11:43.041Z,60.61
2023-03-05T06:14:12.310Z,60.37
2023-03-05T06:16:39.604Z,60.34
2023-03-05T06:19:06.359Z,60.31
2023-03-05T06:21:33.480Z,60.20
2023-03-05T06:24:00.302Z,60.13
2023-03-05T06:26:27.105Z,60.35
2023-03-05T06:28:53.738Z,60.23
2023-03-05T06:31:27.347Z,60.80
2023-03-05T06:34:01.238Z,60.82
2023-03-05T06:36:29.021Z,60.39
2023-03-05T06:38:56.947Z,60.81
2023-03-05T06:41:27.167Z,61.32
2023-03-05T06:43:54.925Z,61.45
2023-03-05T06:46:26.854Z,62.32
2023-03-05T06:48:57.238Z,61.73
2023-03-05T06:51:26.944Z,61.40
2023-03-05T06:53:54.129Z,61.89
2023-03-05T06:56:21.095Z,61.07
2023-03-05T06:58:50.581Z,60.75
2023-03-05T07:01:18.181Z,60.50
2023-03-05T07:03:45.155Z,60.03
2023-03-05T07:06:14.046Z,60.42
2023-03-05T07:08:40.549Z,59.59
2023-03-05T07:11:12.831Z,59.59
2023-03-05T07:13:39.473Z,60.07
2023-03-05T07:16:08.235Z,59.31
2023-03-05T07:18:35.353Z,59.59
2023-03-05T07:21:03.791Z,58.89
2023-03-05T07:23:30.521Z,58.79
2023-03-05T07:25:57.086Z,58.57
2023-03-05T07:28:23.952Z,58.41
2023-03-05T07:31:02.209Z,57.71
2023-03-05T07:33:28.932Z,57.52
2023-03-05T07:35:55.895Z,57.69
2023-03-05T07:38:22.781Z,57.52
2023-03-05T07:40:49.891Z,57.76
2023-03-05T07:43:16.565Z,57.61
2023-03-05T07:45:44.394Z,58.17
2023-03-05T07:48:17.381Z,57.91
2023-03-05T07:50:44.575Z,57.12
2023-03-05T07:53:11.584Z,56.90
2023-03-05T07:55:47.936Z,56.92
2023-03-05T07:58:14.800Z,56.65
2023-03-05T08:00:41.682Z,56.92
2023-03-05T08:03:08.240Z,57.15
2023-03-05T08:05:35.144Z,56.81
2023-03-05T08:08:01.673Z,56.39
2023-03-05T08:10:28.191Z,56.75
2023-03-05T08:12:54.763Z,56.45
2023-03-05T08:15:21.287Z,56.92
2023-03-05T08:17:47.856Z,56.77
2023-03-05T08:20:14.442Z,56.62
2023-03-05T08:22:40.945Z,57.06
2023-03-05T08:25:08.258Z,56.63
2023-03-05T08:27:45.292Z,56.83
2023-03-05T08:30:18.047Z,56.82
2023-03-05T08:32:44.956Z,56.98
2023-03-05T08:35:12.143Z,56.88
2023-03-05T08:56:32.378Z,54.92
2023-03-05T08:58:58.931Z,55.85
2023-03-05T09:01:25.606Z,55.56
2023-03-05T09:03:52.196Z,55.14
2023-03-05T09:06:18.760Z,56.14
2023-03-05T09:08:45.294Z,55.69
2023-03-05T09:11:13.640Z,54.95
2023-03-05T09:13:40.728Z,55.39
2023-03-05T09:16:10.942Z,54.94
2023-03-05T09:18:37.575Z,55.00
2023-03-05T09:21:09.179Z,54.16
2023-03-05T09:23:35.763Z,54.06
2023-03-05T09:26:04.715Z,53.94
2023-03-05T09:28:31.284Z,53.31
2023-03-05T09:30:57.786Z,53.67
2023-03-05T09:33:24.376Z,53.17
2023-03-05T09:35:50.952Z,53.16
2023-03-05T09:38:19.239Z,53.30
2023-03-05T09:41:07.626Z,52.07
2023-03-05T09:43:52.494Z,52.73
2023-03-05T09:46:31.245Z,52.81
2023-03-05T09:49:10.434Z,52.45
2023-03-05T10:29:58.028Z,49.65
2023-03-05T10:35:20.750Z,49.46
2023-03-05T10:54:42.871Z,50.19
2023-03-05T17:20:05.998Z,46.58
2023-03-05T17:22:32.553Z,46.06
2023-03-05T17:24:59.121Z,46.56
2023-03-05T17:27:25.681Z,46.69
2023-03-05T17:29:52.175Z,46.80
2023-03-05T17:32:18.770Z,47.00
2023-03-05T17:34:46.015Z,46.85
2023-03-05T17:37:12.586Z,47.02
2023-03-05T17:39:39.497Z,47.85
2023-03-05T17:42:06.086Z,47.64
2023-03-05T17:44:32.630Z,47.78
2023-03-05T17:46:59.171Z,47.87
2023-03-05T17:49:25.763Z,48.09
2023-03-05T17:51:52.265Z,47.46
2023-03-05T17:54:19.033Z,47.96
2023-03-05T17:56:48.033Z,47.79
2023-03-05T17:59:16.360Z,48.00
2023-03-05T18:01:42.894Z,47.88
2023-03-05T18:04:11.229Z,47.81
2023-03-05T18:06:37.801Z,47.96
2023-03-05T18:09:04.342Z,47.87
2023-03-05T18:11:30.931Z,48.22
2023-03-05T18:13:57.662Z,47.76
2023-03-05T18:16:25.316Z,47.73
2023-03-05T18:18:52.519Z,47.68
2023-03-05T18:21:21.049Z,47.70
2023-03-05T18:23:48.107Z,47.71
2023-03-05T18:26:14.697Z,47.54
2023-03-05T18:28:41.251Z,47.96
2023-03-05T18:33:43.055Z,47.41
2023-03-05T18:36:11.330Z,47.10
2023-03-05T18:38:38.549Z,47.44
2023-03-05T18:41:06.269Z,47.25
2023-03-05T18:43:32.843Z,46.91
2023-03-05T18:45:59.583Z,47.63
2023-03-05T18:48:26.312Z,47.57
2023-03-05T18:50:53.886Z,47.46
2023-03-05T18:53:21.688Z,47.45
2023-03-05T18:55:49.729Z,47.29
2023-03-05T18:58:17.618Z,47.94
2023-03-05T19:00:46.924Z,48.08
2023-03-05T19:03:14.703Z,47.35
2023-03-05T19:05:42.225Z,47.37
2023-03-05T19:08:08.813Z,48.10
2023-03-05T19:10:35.698Z,48.13
2023-03-05T19:13:43.677Z,48.16
2023-03-05T19:16:33.725Z,47.81
2023-03-05T19:19:16.684Z,48.14
2023-03-05T19:21:45.318Z,48.26
2023-03-05T19:24:12.706Z,47.87
2023-03-05T19:26:39.971Z,47.71
2023-03-05T19:29:08.129Z,48.37
2023-03-05T19:31:35.631Z,47.84
2023-03-05T19:34:03.346Z,47.89
2023-03-05T19:36:30.980Z,47.75
2023-03-05T19:38:57.653Z,48.05
2023-03-05T19:41:24.370Z,48.07
2023-03-05T19:43:50.898Z,47.96
2023-03-05T19:46:17.915Z,47.84
2023-03-05T19:48:44.690Z,48.02
2023-03-05T19:51:16.999Z,48.40
2023-03-05T19:53:43.943Z,48.15
2023-03-05T19:56:11.080Z,48.07
2023-03-05T19:58:38.210Z,48.12
2023-03-05T20:01:13.624Z,48.21
2023-03-05T20:03:40.585Z,48.79
2023-03-05T20:06:07.875Z,48.76
2023-03-05T20:08:34.952Z,49.34
2023-03-05T20:11:02.044Z,48.61
2023-03-05T20:13:29.462Z,49.12
2023-03-05T20:15:56.053Z,49.87
2023-03-05T20:18:23.083Z,49.66
2023-03-05T20:20:54.314Z,49.09
2023-03-05T20:23:21.850Z,49.21
2023-03-05T20:25:49.010Z,48.99
2023-03-05T20:28:15.806Z,49.55
2023-03-05T20:30:43.864Z,49.53
2023-03-05T20:33:11.091Z,50.01
2023-03-05T20:35:38.023Z,50.64
2023-03-05T20:38:24.934Z,50.42
2023-03-05T20:40:54.063Z,50.29
2023-03-05T20:43:21.649Z,50.55
2023-03-05T20:45:48.497Z,49.85
2023-03-05T20:48:15.106Z,49.83
2023-03-05T20:50:41.819Z,50.51
2023-03-05T20:53:09.315Z,50.51
2023-03-05T20:55:35.935Z,50.24
2023-03-05T20:58:02.469Z,50.30
2023-03-05T21:00:29.241Z,50.83
2023-03-05T21:02:56.328Z,50.57
2023-03-05T21:05:24.860Z,51.14
2023-03-05T21:07:51.604Z,51.32
2023-03-05T21:10:19.569Z,50.95
2023-03-05T21:12:48.197Z,50.92
2023-03-05T21:15:18.940Z,50.74
2023-03-05T21:17:45.627Z,51.41
2023-03-05T21:20:20.308Z,51.08
2023-03-05T21:22:46.863Z,51.63
2023-03-05T21:25:21.130Z,51.62
2023-03-05T21:27:55.661Z,52.11
2023-03-05T21:30:22.432Z,52.15
2023-03-05T21:32:49.920Z,52.04
2023-03-05T21:35:18.953Z,51.78
2023-03-05T21:37:45.687Z,51.86
2023-03-05T21:40:17.626Z,52.47
2023-03-05T21:42:45.684Z,53.71
2023-03-05T21:45:15.868Z,53.11
2023-03-05T21:47:42.492Z,52.87
2023-03-05T21:50:11.664Z,53.40
2023-03-05T21:52:38.654Z,53.68
2023-03-05T21:55:05.706Z,53.43
2023-03-05T21:57:32.762Z,53.53
2023-03-05T21:59:59.583Z,54.16
2023-03-05T22:02:26.330Z,53.67
2023-03-05T22:04:53.208Z,54.43
2023-03-05T22:07:19.911Z,54.13
2023-03-05T22:09:46.736Z,54.49
2023-03-05T22:12:56.742Z,54.29
2023-03-05T22:15:23.428Z,54.72
2023-03-05T22:17:50.221Z,54.80
2023-03-05T22:20:17.165Z,54.63
2023-03-05T22:22:43.732Z,54.41
2023-03-05T22:25:14.162Z,54.26
2023-03-05T22:27:41.286Z,53.65
2023-03-05T22:30:09.865Z,54.20
2023-03-05T22:32:37.323Z,52.59
2023-03-05T22:35:05.598Z,51.95
2023-03-05T22:37:33.040Z,52.03
2023-03-05T22:39:59.891Z,52.24
2023-03-05T22:42:26.493Z,51.92
2023-03-05T22:44:57.696Z,51.61
2023-03-05T22:47:25.795Z,51.79
2023-03-05T22:49:52.518Z,51.99
2023-03-05T22:52:19.766Z,51.94
2023-03-05T22:54:46.332Z,51.90
2023-03-05T22:57:13.185Z,52.19
2023-03-05T22:59:39.696Z,54.55
2023-03-05T23:02:06.262Z,54.26
2023-03-05T23:04:49.895Z,54.89
2023-03-05T23:07:20.144Z,54.84
2023-03-05T23:09:52.633Z,54.49
2023-03-05T23:12:19.356Z,54.56
2023-03-05T23:14:45.908Z,54.93
2023-03-05T23:17:12.749Z,54.75
2023-03-05T23:19:39.974Z,55.05
2023-03-05T23:22:08.689Z,55.10
2023-03-05T23:24:35.500Z,54.92
2023-03-05T23:27:05.196Z,54.61
2023-03-05T23:30:09.504Z,54.48
2023-03-05T23:32:36.160Z,54.48
2023-03-05T23:35:02.908Z,54.83
2023-03-05T23:37:29.589Z,55.06
2023-03-05T23:39:56.146Z,55.18
2023-03-05T23:42:22.770Z,54.74
2023-03-05T23:44:49.337Z,54.69
2023-03-05T23:47:16.068Z,54.56
2023-03-05T23:49:42.719Z,54.66
2023-03-05T23:52:09.247Z,54.87
2023-03-05T23:54:35.770Z,54.42
2023-03-05T23:57:02.324Z,54.15
2023-03-05T23:59:28.900Z,53.82
